sensor_id;sensor_type;location;lat;lon;timestamp;P1;durP1;ratioP1;P2;durP2;ratioP2
70545;SDS011;58098;51.680;5.134;2023-08-06T00:00:44;8.57;;;5.10;;
70545;SDS011;58098;51.680;5.134;2023-08-06T00:03:10;7.07;;;5.17;;
70545;SDS011;58098;51.680;5.134;2023-08-06T00:05:35;6.93;;;5.40;;
70545;SDS011;58098;51.680;5.134;2023-08-06T00:08:00;7.63;;;5.10;;
70545;SDS011;58098;51.680;5.134;2023-08-06T00:10:26;9.77;;;5.53;;
70545;SDS011;58098;51.680;5.134;2023-08-06T00:12:51;7.13;;;5.40;;
70545;SDS011;58098;51.680;5.134;2023-08-06T00:15:16;9.03;;;5.83;;
70545;SDS011;58098;51.680;5.134;2023-08-06T00:17:42;8.13;;;5.03;;
70545;SDS011;58098;51.680;5.134;2023-08-06T00:20:07;8.20;;;5.40;;
70545;SDS011;58098;51.680;5.134;2023-08-06T00:22:33;6.47;;;4.80;;
70545;SDS011;58098;51.680;5.134;2023-08-06T00:25:00;7.65;;;5.10;;
70545;SDS011;58098;51.680;5.134;2023-08-06T00:27:26;6.97;;;5.50;;
70545;SDS011;58098;51.680;5.134;2023-08-06T00:29:51;5.75;;;5.00;;
70545;SDS011;58098;51.680;5.134;2023-08-06T00:32:17;8.20;;;5.60;;
70545;SDS011;58098;51.680;5.134;2023-08-06T00:34:42;9.50;;;5.20;;
70545;SDS011;58098;51.680;5.134;2023-08-06T00:37:08;7.80;;;5.13;;
70545;SDS011;58098;51.680;5.134;2023-08-06T00:39:33;8.50;;;5.20;;
70545;SDS011;58098;51.680;5.134;2023-08-06T00:41:59;9.10;;;5.50;;
70545;SDS011;58098;51.680;5.134;2023-08-06T00:44:24;6.80;;;5.77;;
70545;SDS011;58098;51.680;5.134;2023-08-06T00:46:49;7.23;;;5.50;;
70545;SDS011;58098;51.680;5.134;2023-08-06T00:49:15;8.23;;;5.28;;
70545;SDS011;58098;51.680;5.134;2023-08-06T00:51:41;9.02;;;5.85;;
70545;SDS011;58098;51.680;5.134;2023-08-06T00:54:08;8.00;;;5.17;;
70545;SDS011;58098;51.680;5.134;2023-08-06T00:56:34;9.13;;;5.55;;
70545;SDS011;58098;51.680;5.134;2023-08-06T00:59:03;8.30;;;5.63;;
70545;SDS011;58098;51.680;5.134;2023-08-06T01:01:30;7.60;;;5.20;;
70545;SDS011;58098;51.680;5.134;2023-08-06T01:03:56;8.03;;;5.00;;
70545;SDS011;58098;51.680;5.134;2023-08-06T01:06:23;8.03;;;5.47;;
70545;SDS011;58098;51.680;5.134;2023-08-06T01:08:58;7.55;;;5.32;;
70545;SDS011;58098;51.680;5.134;2023-08-06T01:14:45;8.35;;;5.40;;
70545;SDS011;58098;51.680;5.134;2023-08-06T01:17:17;8.68;;;5.45;;
70545;SDS011;58098;51.680;5.134;2023-08-06T01:19:43;7.53;;;5.40;;
70545;SDS011;58098;51.680;5.134;2023-08-06T01:22:08;10.27;;;5.73;;
70545;SDS011;58098;51.680;5.134;2023-08-06T01:24:33;8.93;;;5.47;;
70545;SDS011;58098;51.680;5.134;2023-08-06T01:29:47;7.10;;;5.07;;
70545;SDS011;58098;51.680;5.134;2023-08-06T01:32:18;7.57;;;5.20;;
70545;SDS011;58098;51.680;5.134;2023-08-06T01:34:46;7.88;;;5.20;;
70545;SDS011;58098;51.680;5.134;2023-08-06T01:37:13;13.13;;;5.82;;
70545;SDS011;58098;51.680;5.134;2023-08-06T01:39:39;7.43;;;5.70;;
70545;SDS011;58098;51.680;5.134;2023-08-06T01:42:07;9.50;;;5.93;;
70545;SDS011;58098;51.680;5.134;2023-08-06T01:44:33;11.20;;;5.77;;
70545;SDS011;58098;51.680;5.134;2023-08-06T01:46:58;7.07;;;5.30;;
70545;SDS011;58098;51.680;5.134;2023-08-06T01:49:24;8.70;;;5.63;;
70545;SDS011;58098;51.680;5.134;2023-08-06T01:51:49;10.60;;;6.03;;
70545;SDS011;58098;51.680;5.134;2023-08-06T01:54:14;11.00;;;6.03;;
70545;SDS011;58098;51.680;5.134;2023-08-06T01:56:40;9.33;;;5.77;;
70545;SDS011;58098;51.680;5.134;2023-08-06T01:59:05;9.68;;;5.97;;
70545;SDS011;58098;51.680;5.134;2023-08-06T02:01:31;9.10;;;5.63;;
70545;SDS011;58098;51.680;5.134;2023-08-06T02:03:56;7.60;;;5.67;;
70545;SDS011;58098;51.680;5.134;2023-08-06T02:06:21;9.63;;;6.13;;
70545;SDS011;58098;51.680;5.134;2023-08-06T02:08:47;7.70;;;5.40;;
70545;SDS011;58098;51.680;5.134;2023-08-06T02:11:12;12.20;;;6.27;;
70545;SDS011;58098;51.680;5.134;2023-08-06T02:13:37;7.90;;;5.93;;
70545;SDS011;58098;51.680;5.134;2023-08-06T02:16:03;8.53;;;6.00;;
70545;SDS011;58098;51.680;5.134;2023-08-06T02:18:28;10.35;;;6.63;;
70545;SDS011;58098;51.680;5.134;2023-08-06T02:20:57;8.73;;;5.63;;
70545;SDS011;58098;51.680;5.134;2023-08-06T02:23:23;7.45;;;5.82;;
70545;SDS011;58098;51.680;5.134;2023-08-06T02:25:56;10.67;;;6.13;;
70545;SDS011;58098;51.680;5.134;2023-08-06T02:28:24;6.03;;;5.28;;
70545;SDS011;58098;51.680;5.134;2023-08-06T02:30:50;9.27;;;6.27;;
70545;SDS011;58098;51.680;5.134;2023-08-06T02:33:16;10.80;;;6.07;;
70545;SDS011;58098;51.680;5.134;2023-08-06T02:35:41;7.43;;;5.77;;
70545;SDS011;58098;51.680;5.134;2023-08-06T02:38:06;8.00;;;5.67;;
70545;SDS011;58098;51.680;5.134;2023-08-06T02:40:32;9.03;;;5.90;;
70545;SDS011;58098;51.680;5.134;2023-08-06T02:42:57;10.13;;;6.00;;
70545;SDS011;58098;51.680;5.134;2023-08-06T02:45:22;10.43;;;6.20;;
70545;SDS011;58098;51.680;5.134;2023-08-06T02:47:48;9.10;;;5.63;;
70545;SDS011;58098;51.680;5.134;2023-08-06T02:50:13;8.87;;;5.90;;
70545;SDS011;58098;51.680;5.134;2023-08-06T02:52:38;9.70;;;6.60;;
70545;SDS011;58098;51.680;5.134;2023-08-06T02:55:05;9.80;;;6.03;;
70545;SDS011;58098;51.680;5.134;2023-08-06T02:57:31;11.75;;;6.78;;
70545;SDS011;58098;51.680;5.134;2023-08-06T02:59:57;8.80;;;6.33;;
70545;SDS011;58098;51.680;5.134;2023-08-06T03:02:22;8.93;;;6.17;;
70545;SDS011;58098;51.680;5.134;2023-08-06T03:04:48;9.37;;;6.60;;
70545;SDS011;58098;51.680;5.134;2023-08-06T03:07:13;11.00;;;6.93;;
70545;SDS011;58098;51.680;5.134;2023-08-06T03:09:38;13.43;;;6.67;;
70545;SDS011;58098;51.680;5.134;2023-08-06T03:12:04;10.35;;;6.72;;
70545;SDS011;58098;51.680;5.134;2023-08-06T03:14:30;9.57;;;6.20;;
70545;SDS011;58098;51.680;5.134;2023-08-06T03:16:56;13.55;;;6.85;;
70545;SDS011;58098;51.680;5.134;2023-08-06T03:19:21;10.00;;;6.70;;
70545;SDS011;58098;51.680;5.134;2023-08-06T03:21:46;10.40;;;6.93;;
70545;SDS011;58098;51.680;5.134;2023-08-06T03:24:13;10.20;;;7.33;;
70545;SDS011;58098;51.680;5.134;2023-08-06T03:26:38;10.90;;;7.53;;
70545;SDS011;58098;51.680;5.134;2023-08-06T03:29:04;12.97;;;7.57;;
70545;SDS011;58098;51.680;5.134;2023-08-06T03:31:29;13.87;;;8.70;;
70545;SDS011;58098;51.680;5.134;2023-08-06T03:33:54;10.77;;;8.47;;
70545;SDS011;58098;51.680;5.134;2023-08-06T03:36:20;11.43;;;7.80;;
70545;SDS011;58098;51.680;5.134;2023-08-06T03:38:45;10.20;;;7.53;;
70545;SDS011;58098;51.680;5.134;2023-08-06T03:41:10;19.33;;;8.37;;
70545;SDS011;58098;51.680;5.134;2023-08-06T03:43:36;10.85;;;7.60;;
70545;SDS011;58098;51.680;5.134;2023-08-06T03:46:01;11.43;;;8.73;;
70545;SDS011;58098;51.680;5.134;2023-08-06T03:48:26;11.47;;;8.30;;
70545;SDS011;58098;51.680;5.134;2023-08-06T03:50:52;11.37;;;7.90;;
70545;SDS011;58098;51.680;5.134;2023-08-06T03:53:17;11.30;;;7.70;;
70545;SDS011;58098;51.680;5.134;2023-08-06T03:55:42;10.23;;;7.50;;
70545;SDS011;58098;51.680;5.134;2023-08-06T03:58:08;11.23;;;7.47;;
70545;SDS011;58098;51.680;5.134;2023-08-06T04:00:33;13.47;;;8.13;;
70545;SDS011;58098;51.680;5.134;2023-08-06T04:02:58;11.53;;;8.87;;
70545;SDS011;58098;51.680;5.134;2023-08-06T04:05:24;11.13;;;8.75;;
70545;SDS011;58098;51.680;5.134;2023-08-06T04:07:49;11.43;;;9.00;;
70545;SDS011;58098;51.680;5.134;2023-08-06T04:10:14;15.93;;;9.30;;
70545;SDS011;58098;51.680;5.134;2023-08-06T04:12:40;12.17;;;9.13;;
70545;SDS011;58098;51.680;5.134;2023-08-06T04:15:05;14.07;;;10.57;;
70545;SDS011;58098;51.680;5.134;2023-08-06T04:17:31;15.77;;;9.85;;
70545;SDS011;58098;51.680;5.134;2023-08-06T04:19:56;14.57;;;9.07;;
70545;SDS011;58098;51.680;5.134;2023-08-06T04:22:25;13.88;;;9.82;;
70545;SDS011;58098;51.680;5.134;2023-08-06T04:24:50;11.87;;;8.87;;
70545;SDS011;58098;51.680;5.134;2023-08-06T04:27:16;13.50;;;9.38;;
70545;SDS011;58098;51.680;5.134;2023-08-06T04:29:42;10.20;;;8.60;;
70545;SDS011;58098;51.680;5.134;2023-08-06T04:32:09;12.90;;;8.57;;
70545;SDS011;58098;51.680;5.134;2023-08-06T04:34:35;11.50;;;9.02;;
70545;SDS011;58098;51.680;5.134;2023-08-06T04:37:01;13.50;;;9.00;;
70545;SDS011;58098;51.680;5.134;2023-08-06T04:39:27;14.18;;;8.88;;
70545;SDS011;58098;51.680;5.134;2023-08-06T04:41:53;11.23;;;8.17;;
70545;SDS011;58098;51.680;5.134;2023-08-06T04:44:18;10.80;;;8.90;;
70545;SDS011;58098;51.680;5.134;2023-08-06T04:46:44;10.70;;;8.23;;
70545;SDS011;58098;51.680;5.134;2023-08-06T04:49:09;10.80;;;8.17;;
70545;SDS011;58098;51.680;5.134;2023-08-06T04:51:34;12.10;;;9.17;;
70545;SDS011;58098;51.680;5.134;2023-08-06T04:54:00;11.90;;;9.57;;
70545;SDS011;58098;51.680;5.134;2023-08-06T04:56:25;14.77;;;9.87;;
70545;SDS011;58098;51.680;5.134;2023-08-06T04:58:51;16.07;;;10.97;;
70545;SDS011;58098;51.680;5.134;2023-08-06T05:01:16;14.73;;;11.10;;
70545;SDS011;58098;51.680;5.134;2023-08-06T05:03:41;14.03;;;9.87;;
70545;SDS011;58098;51.680;5.134;2023-08-06T05:06:07;13.73;;;10.60;;
70545;SDS011;58098;51.680;5.134;2023-08-06T05:08:32;15.25;;;10.48;;
70545;SDS011;58098;51.680;5.134;2023-08-06T05:10:58;16.73;;;11.00;;
70545;SDS011;58098;51.680;5.134;2023-08-06T05:13:23;16.47;;;11.00;;
70545;SDS011;58098;51.680;5.134;2023-08-06T05:15:50;16.52;;;11.27;;
70545;SDS011;58098;51.680;5.134;2023-08-06T05:18:15;18.33;;;10.30;;
70545;SDS011;58098;51.680;5.134;2023-08-06T05:20:41;14.17;;;9.80;;
70545;SDS011;58098;51.680;5.134;2023-08-06T05:23:08;17.37;;;10.40;;
70545;SDS011;58098;51.680;5.134;2023-08-06T05:25:36;15.48;;;10.68;;
70545;SDS011;58098;51.680;5.134;2023-08-06T05:28:04;18.27;;;12.02;;
70545;SDS011;58098;51.680;5.134;2023-08-06T05:30:30;17.13;;;11.43;;
70545;SDS011;58098;51.680;5.134;2023-08-06T05:32:55;17.40;;;11.53;;
70545;SDS011;58098;51.680;5.134;2023-08-06T05:35:21;14.98;;;11.02;;
70545;SDS011;58098;51.680;5.134;2023-08-06T05:37:47;17.57;;;11.37;;
70545;SDS011;58098;51.680;5.134;2023-08-06T05:40:13;21.42;;;11.93;;
70545;SDS011;58098;51.680;5.134;2023-08-06T05:42:39;14.13;;;11.27;;
70545;SDS011;58098;51.680;5.134;2023-08-06T05:45:05;11.27;;;7.82;;
70545;SDS011;58098;51.680;5.134;2023-08-06T05:47:31;8.95;;;3.67;;
70545;SDS011;58098;51.680;5.134;2023-08-06T05:49:56;3.10;;;2.50;;
70545;SDS011;58098;51.680;5.134;2023-08-06T05:52:22;3.43;;;1.73;;
70545;SDS011;58098;51.680;5.134;2023-08-06T05:54:47;1.83;;;1.73;;
70545;SDS011;58098;51.680;5.134;2023-08-06T05:57:12;2.43;;;2.23;;
70545;SDS011;58098;51.680;5.134;2023-08-06T05:59:40;2.50;;;2.30;;
70545;SDS011;58098;51.680;5.134;2023-08-06T06:02:05;8.77;;;2.88;;
70545;SDS011;58098;51.680;5.134;2023-08-06T06:04:31;6.77;;;3.43;;
70545;SDS011;58098;51.680;5.134;2023-08-06T06:06:56;6.07;;;3.03;;
70545;SDS011;58098;51.680;5.134;2023-08-06T06:09:21;14.50;;;4.07;;
70545;SDS011;58098;51.680;5.134;2023-08-06T06:11:47;5.47;;;3.73;;
70545;SDS011;58098;51.680;5.134;2023-08-06T06:14:14;4.03;;;3.60;;
70545;SDS011;58098;51.680;5.134;2023-08-06T06:16:39;8.57;;;4.53;;
70545;SDS011;58098;51.680;5.134;2023-08-06T06:19:05;5.07;;;3.90;;
70545;SDS011;58098;51.680;5.134;2023-08-06T06:21:30;7.53;;;5.30;;
70545;SDS011;58098;51.680;5.134;2023-08-06T06:23:55;7.70;;;5.43;;
70545;SDS011;58098;51.680;5.134;2023-08-06T06:26:21;7.50;;;4.35;;
70545;SDS011;58098;51.680;5.134;2023-08-06T06:28:47;4.17;;;3.33;;
70545;SDS011;58098;51.680;5.134;2023-08-06T06:31:12;6.50;;;4.33;;
70545;SDS011;58098;51.680;5.134;2023-08-06T06:33:37;5.53;;;3.63;;
70545;SDS011;58098;51.680;5.134;2023-08-06T06:36:03;5.05;;;3.88;;
70545;SDS011;58098;51.680;5.134;2023-08-06T06:38:28;4.60;;;4.13;;
70545;SDS011;58098;51.680;5.134;2023-08-06T06:40:54;6.70;;;3.93;;
70545;SDS011;58098;51.680;5.134;2023-08-06T06:43:20;5.68;;;3.88;;
70545;SDS011;58098;51.680;5.134;2023-08-06T06:45:45;8.17;;;4.13;;
70545;SDS011;58098;51.680;5.134;2023-08-06T06:48:11;13.95;;;4.97;;
70545;SDS011;58098;51.680;5.134;2023-08-06T06:50:36;7.07;;;4.73;;
70545;SDS011;58098;51.680;5.134;2023-08-06T06:53:01;8.90;;;5.17;;
70545;SDS011;58098;51.680;5.134;2023-08-06T06:55:27;7.63;;;5.67;;
70545;SDS011;58098;51.680;5.134;2023-08-06T06:57:52;9.13;;;5.03;;
70545;SDS011;58098;51.680;5.134;2023-08-06T07:00:18;9.87;;;6.30;;
70545;SDS011;58098;51.680;5.134;2023-08-06T07:02:43;9.73;;;5.13;;
70545;SDS011;58098;51.680;5.134;2023-08-06T07:05:08;8.30;;;6.00;;
70545;SDS011;58098;51.680;5.134;2023-08-06T07:07:34;8.23;;;5.00;;
70545;SDS011;58098;51.680;5.134;2023-08-06T07:10:00;11.97;;;6.23;;
70545;SDS011;58098;51.680;5.134;2023-08-06T07:12:26;10.95;;;5.78;;
70545;SDS011;58098;51.680;5.134;2023-08-06T07:14:51;12.43;;;6.97;;
70545;SDS011;58098;51.680;5.134;2023-08-06T07:17:17;10.10;;;6.23;;
70545;SDS011;58098;51.680;5.134;2023-08-06T07:19:42;11.40;;;6.43;;
70545;SDS011;58098;51.680;5.134;2023-08-06T07:22:07;14.30;;;8.00;;
70545;SDS011;58098;51.680;5.134;2023-08-06T07:24:33;12.80;;;7.00;;
70545;SDS011;58098;51.680;5.134;2023-08-06T07:26:58;16.08;;;9.20;;
70545;SDS011;58098;51.680;5.134;2023-08-06T07:29:23;13.90;;;7.67;;
70545;SDS011;58098;51.680;5.134;2023-08-06T07:31:49;15.07;;;7.70;;
70545;SDS011;58098;51.680;5.134;2023-08-06T07:34:15;12.70;;;7.95;;
70545;SDS011;58098;51.680;5.134;2023-08-06T07:36:43;16.17;;;7.03;;
70545;SDS011;58098;51.680;5.134;2023-08-06T07:39:11;12.10;;;6.40;;
70545;SDS011;58098;51.680;5.134;2023-08-06T07:41:36;14.90;;;7.57;;
70545;SDS011;58098;51.680;5.134;2023-08-06T07:44:01;11.90;;;6.10;;
70545;SDS011;58098;51.680;5.134;2023-08-06T07:46:27;15.43;;;5.50;;
70545;SDS011;58098;51.680;5.134;2023-08-06T07:48:52;15.30;;;5.37;;
70545;SDS011;58098;51.680;5.134;2023-08-06T07:51:18;14.53;;;5.83;;
70545;SDS011;58098;51.680;5.134;2023-08-06T07:53:43;10.67;;;5.20;;
70545;SDS011;58098;51.680;5.134;2023-08-06T07:56:09;12.40;;;4.87;;
70545;SDS011;58098;51.680;5.134;2023-08-06T07:58:34;11.10;;;4.37;;
70545;SDS011;58098;51.680;5.134;2023-08-06T08:01:00;13.93;;;4.97;;
70545;SDS011;58098;51.680;5.134;2023-08-06T08:03:25;9.57;;;4.13;;
70545;SDS011;58098;51.680;5.134;2023-08-06T08:05:53;8.97;;;3.93;;
70545;SDS011;58098;51.680;5.134;2023-08-06T08:08:22;12.43;;;4.15;;
70545;SDS011;58098;51.680;5.134;2023-08-06T08:10:47;9.17;;;3.63;;
70545;SDS011;58098;51.680;5.134;2023-08-06T08:13:13;7.60;;;3.03;;
70545;SDS011;58098;51.680;5.134;2023-08-06T08:15:38;7.37;;;3.10;;
70545;SDS011;58098;51.680;5.134;2023-08-06T08:18:03;7.00;;;2.92;;
70545;SDS011;58098;51.680;5.134;2023-08-06T08:20:29;8.27;;;2.90;;
70545;SDS011;58098;51.680;5.134;2023-08-06T08:22:57;11.13;;;2.97;;
70545;SDS011;58098;51.680;5.134;2023-08-06T08:25:24;5.83;;;2.83;;
70545;SDS011;58098;51.680;5.134;2023-08-06T08:27:49;5.00;;;2.65;;
70545;SDS011;58098;51.680;5.134;2023-08-06T08:30:14;5.57;;;2.67;;
70545;SDS011;58098;51.680;5.134;2023-08-06T08:32:40;12.10;;;2.93;;
70545;SDS011;58098;51.680;5.134;2023-08-06T08:35:05;10.20;;;3.50;;
70545;SDS011;58098;51.680;5.134;2023-08-06T08:37:31;8.67;;;3.30;;
70545;SDS011;58098;51.680;5.134;2023-08-06T08:39:56;8.63;;;3.53;;
70545;SDS011;58098;51.680;5.134;2023-08-06T08:42:21;7.87;;;3.03;;
70545;SDS011;58098;51.680;5.134;2023-08-06T08:44:47;7.45;;;3.33;;
70545;SDS011;58098;51.680;5.134;2023-08-06T08:47:12;5.80;;;2.83;;
70545;SDS011;58098;51.680;5.134;2023-08-06T08:49:41;10.80;;;3.17;;
70545;SDS011;58098;51.680;5.134;2023-08-06T08:52:08;12.50;;;3.42;;
70545;SDS011;58098;51.680;5.134;2023-08-06T08:54:38;6.70;;;3.42;;
70545;SDS011;58098;51.680;5.134;2023-08-06T08:57:04;15.73;;;4.10;;
70545;SDS011;58098;51.680;5.134;2023-08-06T08:59:30;10.57;;;3.95;;
70545;SDS011;58098;51.680;5.134;2023-08-06T09:01:55;8.67;;;4.43;;
70545;SDS011;58098;51.680;5.134;2023-08-06T09:04:21;8.05;;;3.35;;
70545;SDS011;58098;51.680;5.134;2023-08-06T09:06:49;7.40;;;3.58;;
70545;SDS011;58098;51.680;5.134;2023-08-06T09:09:17;11.03;;;4.03;;
70545;SDS011;58098;51.680;5.134;2023-08-06T09:11:51;9.73;;;3.85;;
70545;SDS011;58098;51.680;5.134;2023-08-06T09:14:16;11.30;;;3.93;;
70545;SDS011;58098;51.680;5.134;2023-08-06T09:16:42;16.38;;;3.80;;
70545;SDS011;58098;51.680;5.134;2023-08-06T09:19:11;7.85;;;3.70;;
70545;SDS011;58098;51.680;5.134;2023-08-06T09:21:41;7.25;;;3.83;;
70545;SDS011;58098;51.680;5.134;2023-08-06T09:24:10;12.13;;;4.10;;
70545;SDS011;58098;51.680;5.134;2023-08-06T09:26:37;9.30;;;3.97;;
70545;SDS011;58098;51.680;5.134;2023-08-06T09:29:08;8.45;;;3.83;;
70545;SDS011;58098;51.680;5.134;2023-08-06T09:31:40;9.63;;;4.15;;
70545;SDS011;58098;51.680;5.134;2023-08-06T09:34:15;13.05;;;4.15;;
70545;SDS011;58098;51.680;5.134;2023-08-06T09:36:48;8.18;;;4.13;;
70545;SDS011;58098;51.680;5.134;2023-08-06T09:39:19;10.90;;;4.00;;
70545;SDS011;58098;51.680;5.134;2023-08-06T09:41:45;9.85;;;3.90;;
70545;SDS011;58098;51.680;5.134;2023-08-06T09:44:15;10.98;;;3.80;;
70545;SDS011;58098;51.680;5.134;2023-08-06T09:46:43;12.45;;;4.00;;
70545;SDS011;58098;51.680;5.134;2023-08-06T09:49:12;7.68;;;3.45;;
70545;SDS011;58098;51.680;5.134;2023-08-06T09:51:37;10.83;;;3.30;;
70545;SDS011;58098;51.680;5.134;2023-08-06T09:54:04;10.00;;;3.90;;
70545;SDS011;58098;51.680;5.134;2023-08-06T09:56:31;8.82;;;4.10;;
70545;SDS011;58098;51.680;5.134;2023-08-06T09:59:02;14.40;;;5.00;;
70545;SDS011;58098;51.680;5.134;2023-08-06T10:01:31;9.98;;;4.10;;
70545;SDS011;58098;51.680;5.134;2023-08-06T10:03:58;8.18;;;4.80;;
70545;SDS011;58098;51.680;5.134;2023-08-06T10:06:26;10.07;;;4.60;;
70545;SDS011;58098;51.680;5.134;2023-08-06T10:08:53;10.95;;;4.15;;
70545;SDS011;58098;51.680;5.134;2023-08-06T10:11:18;9.47;;;4.60;;
70545;SDS011;58098;51.680;5.134;2023-08-06T10:13:47;10.88;;;4.30;;
70545;SDS011;58098;51.680;5.134;2023-08-06T10:16:14;13.45;;;4.00;;
70545;SDS011;58098;51.680;5.134;2023-08-06T10:18:39;12.03;;;3.80;;
70545;SDS011;58098;51.680;5.134;2023-08-06T10:21:09;10.50;;;4.47;;
70545;SDS011;58098;51.680;5.134;2023-08-06T10:23:35;14.85;;;4.57;;
70545;SDS011;58098;51.680;5.134;2023-08-06T10:26:03;9.55;;;3.47;;
70545;SDS011;58098;51.680;5.134;2023-08-06T10:28:38;10.73;;;4.17;;
70545;SDS011;58098;51.680;5.134;2023-08-06T10:31:05;9.75;;;4.03;;
70545;SDS011;58098;51.680;5.134;2023-08-06T10:33:40;11.70;;;4.22;;
70545;SDS011;58098;51.680;5.134;2023-08-06T10:36:08;8.95;;;4.38;;
70545;SDS011;58098;51.680;5.134;2023-08-06T10:38:34;10.70;;;4.32;;
70545;SDS011;58098;51.680;5.134;2023-08-06T10:41:08;8.60;;;4.63;;
70545;SDS011;58098;51.680;5.134;2023-08-06T10:43:40;11.55;;;4.82;;
70545;SDS011;58098;51.680;5.134;2023-08-06T10:46:11;7.43;;;4.03;;
70545;SDS011;58098;51.680;5.134;2023-08-06T10:48:47;8.10;;;4.15;;
70545;SDS011;58098;51.680;5.134;2023-08-06T10:51:12;9.83;;;4.50;;
70545;SDS011;58098;51.680;5.134;2023-08-06T10:53:46;8.52;;;4.38;;
70545;SDS011;58098;51.680;5.134;2023-08-06T10:58:40;11.43;;;4.28;;
70545;SDS011;58098;51.680;5.134;2023-08-06T11:01:07;8.60;;;4.07;;
70545;SDS011;58098;51.680;5.134;2023-08-06T11:03:33;11.18;;;4.50;;
70545;SDS011;58098;51.680;5.134;2023-08-06T11:05:59;6.50;;;3.30;;
70545;SDS011;58098;51.680;5.134;2023-08-06T11:08:25;8.53;;;3.20;;
70545;SDS011;58098;51.680;5.134;2023-08-06T11:10:54;11.07;;;3.47;;
70545;SDS011;58098;51.680;5.134;2023-08-06T11:13:20;9.57;;;3.43;;
70545;SDS011;58098;51.680;5.134;2023-08-06T11:15:46;5.55;;;2.60;;
70545;SDS011;58098;51.680;5.134;2023-08-06T11:18:12;5.25;;;2.10;;
70545;SDS011;58098;51.680;5.134;2023-08-06T11:20:38;5.27;;;2.77;;
70545;SDS011;58098;51.680;5.134;2023-08-06T11:23:03;2.72;;;1.98;;
70545;SDS011;58098;51.680;5.134;2023-08-06T11:25:29;4.50;;;2.28;;
70545;SDS011;58098;51.680;5.134;2023-08-06T11:27:55;3.73;;;2.37;;
70545;SDS011;58098;51.680;5.134;2023-08-06T11:30:20;3.07;;;2.00;;
70545;SDS011;58098;51.680;5.134;2023-08-06T11:32:48;3.43;;;2.07;;
70545;SDS011;58098;51.680;5.134;2023-08-06T11:35:14;3.90;;;2.33;;
70545;SDS011;58098;51.680;5.134;2023-08-06T11:37:43;3.63;;;2.28;;
70545;SDS011;58098;51.680;5.134;2023-08-06T11:40:13;2.37;;;2.00;;
70545;SDS011;58098;51.680;5.134;2023-08-06T11:42:40;3.20;;;1.83;;
70545;SDS011;58098;51.680;5.134;2023-08-06T11:45:07;4.93;;;2.10;;
70545;SDS011;58098;51.680;5.134;2023-08-06T11:47:34;3.40;;;1.75;;
70545;SDS011;58098;51.680;5.134;2023-08-06T11:50:04;3.00;;;1.50;;
70545;SDS011;58098;51.680;5.134;2023-08-06T11:52:30;3.73;;;2.00;;
70545;SDS011;58098;51.680;5.134;2023-08-06T11:54:59;3.08;;;1.70;;
70545;SDS011;58098;51.680;5.134;2023-08-06T11:57:26;4.28;;;2.03;;
70545;SDS011;58098;51.680;5.134;2023-08-06T11:59:54;3.17;;;1.52;;
70545;SDS011;58098;51.680;5.134;2023-08-06T12:02:20;2.43;;;1.70;;
70545;SDS011;58098;51.680;5.134;2023-08-06T12:05:01;2.00;;;1.73;;
70545;SDS011;58098;51.680;5.134;2023-08-06T12:07:38;3.55;;;1.98;;
70545;SDS011;58098;51.680;5.134;2023-08-06T12:10:06;3.95;;;2.10;;
70545;SDS011;58098;51.680;5.134;2023-08-06T12:12:32;5.13;;;2.00;;
70545;SDS011;58098;51.680;5.134;2023-08-06T12:14:57;3.05;;;1.60;;
70545;SDS011;58098;51.680;5.134;2023-08-06T12:17:24;4.37;;;1.90;;
70545;SDS011;58098;51.680;5.134;2023-08-06T12:19:49;3.10;;;1.65;;
70545;SDS011;58098;51.680;5.134;2023-08-06T12:22:15;4.57;;;1.80;;
70545;SDS011;58098;51.680;5.134;2023-08-06T12:24:41;7.37;;;2.07;;
70545;SDS011;58098;51.680;5.134;2023-08-06T12:27:10;4.78;;;1.95;;
70545;SDS011;58098;51.680;5.134;2023-08-06T12:29:37;3.65;;;2.03;;
70545;SDS011;58098;51.680;5.134;2023-08-06T12:32:05;2.97;;;1.83;;
70545;SDS011;58098;51.680;5.134;2023-08-06T12:34:31;4.37;;;2.07;;
70545;SDS011;58098;51.680;5.134;2023-08-06T12:36:56;3.27;;;1.83;;
70545;SDS011;58098;51.680;5.134;2023-08-06T12:39:21;2.50;;;1.73;;
70545;SDS011;58098;51.680;5.134;2023-08-06T12:41:47;3.83;;;2.27;;
70545;SDS011;58098;51.680;5.134;2023-08-06T12:44:12;3.30;;;1.80;;
70545;SDS011;58098;51.680;5.134;2023-08-06T12:46:38;3.67;;;1.73;;
70545;SDS011;58098;51.680;5.134;2023-08-06T12:49:03;2.27;;;1.50;;
70545;SDS011;58098;51.680;5.134;2023-08-06T12:51:28;3.83;;;2.17;;
70545;SDS011;58098;51.680;5.134;2023-08-06T12:53:54;3.63;;;1.83;;
70545;SDS011;58098;51.680;5.134;2023-08-06T12:56:19;4.53;;;2.03;;
70545;SDS011;58098;51.680;5.134;2023-08-06T12:58:45;4.43;;;2.10;;
70545;SDS011;58098;51.680;5.134;2023-08-06T13:01:10;4.20;;;2.17;;
70545;SDS011;58098;51.680;5.134;2023-08-06T13:03:35;4.93;;;2.07;;
70545;SDS011;58098;51.680;5.134;2023-08-06T13:06:00;2.73;;;1.83;;
70545;SDS011;58098;51.680;5.134;2023-08-06T13:08:26;3.93;;;1.93;;
70545;SDS011;58098;51.680;5.134;2023-08-06T13:10:51;3.00;;;2.03;;
70545;SDS011;58098;51.680;5.134;2023-08-06T13:13:17;4.00;;;1.80;;
70545;SDS011;58098;51.680;5.134;2023-08-06T13:15:42;3.77;;;1.63;;
70545;SDS011;58098;51.680;5.134;2023-08-06T13:18:07;2.57;;;1.80;;
70545;SDS011;58098;51.680;5.134;2023-08-06T13:20:33;2.20;;;1.70;;
70545;SDS011;58098;51.680;5.134;2023-08-06T13:22:58;4.55;;;1.73;;
70545;SDS011;58098;51.680;5.134;2023-08-06T13:25:26;4.93;;;1.80;;
70545;SDS011;58098;51.680;5.134;2023-08-06T13:27:53;3.35;;;1.50;;
70545;SDS011;58098;51.680;5.134;2023-08-06T13:30:19;2.30;;;1.58;;
70545;SDS011;58098;51.680;5.134;2023-08-06T13:32:45;5.43;;;2.27;;
70545;SDS011;58098;51.680;5.134;2023-08-06T13:35:10;2.10;;;1.70;;
70545;SDS011;58098;51.680;5.134;2023-08-06T13:37:35;2.53;;;1.37;;
70545;SDS011;58098;51.680;5.134;2023-08-06T13:40:01;3.17;;;1.48;;
70545;SDS011;58098;51.680;5.134;2023-08-06T13:42:26;3.07;;;1.50;;
70545;SDS011;58098;51.680;5.134;2023-08-06T13:44:51;3.37;;;1.90;;
70545;SDS011;58098;51.680;5.134;2023-08-06T13:47:17;1.70;;;1.30;;
70545;SDS011;58098;51.680;5.134;2023-08-06T13:49:43;1.90;;;1.40;;
70545;SDS011;58098;51.680;5.134;2023-08-06T13:52:08;4.13;;;1.37;;
70545;SDS011;58098;51.680;5.134;2023-08-06T13:54:33;3.27;;;1.27;;
70545;SDS011;58098;51.680;5.134;2023-08-06T13:56:59;3.57;;;1.50;;
70545;SDS011;58098;51.680;5.134;2023-08-06T13:59:24;1.90;;;1.40;;
70545;SDS011;58098;51.680;5.134;2023-08-06T14:01:50;3.73;;;1.60;;
70545;SDS011;58098;51.680;5.134;2023-08-06T14:04:15;1.80;;;1.40;;
70545;SDS011;58098;51.680;5.134;2023-08-06T14:06:41;2.73;;;1.30;;
70545;SDS011;58098;51.680;5.134;2023-08-06T14:09:06;3.07;;;1.43;;
70545;SDS011;58098;51.680;5.134;2023-08-06T14:11:32;2.80;;;1.48;;
70545;SDS011;58098;51.680;5.134;2023-08-06T14:13:58;4.93;;;1.30;;
70545;SDS011;58098;51.680;5.134;2023-08-06T14:16:25;1.58;;;1.40;;
70545;SDS011;58098;51.680;5.134;2023-08-06T14:18:50;2.30;;;1.40;;
70545;SDS011;58098;51.680;5.134;2023-08-06T14:21:15;3.93;;;1.67;;
70545;SDS011;58098;51.680;5.134;2023-08-06T14:23:41;2.33;;;1.30;;
70545;SDS011;58098;51.680;5.134;2023-08-06T14:26:06;3.50;;;1.40;;
70545;SDS011;58098;51.680;5.134;2023-08-06T14:28:32;5.45;;;1.33;;
70545;SDS011;58098;51.680;5.134;2023-08-06T14:30:57;2.63;;;1.60;;
70545;SDS011;58098;51.680;5.134;2023-08-06T14:33:23;3.47;;;1.87;;
70545;SDS011;58098;51.680;5.134;2023-08-06T14:35:48;2.47;;;1.53;;
70545;SDS011;58098;51.680;5.134;2023-08-06T14:38:14;2.17;;;1.30;;
70545;SDS011;58098;51.680;5.134;2023-08-06T14:40:39;1.97;;;1.47;;
70545;SDS011;58098;51.680;5.134;2023-08-06T14:43:05;3.90;;;1.90;;
70545;SDS011;58098;51.680;5.134;2023-08-06T14:45:31;3.60;;;1.60;;